Aérodrome :
LOGIN :

S'inscrire | Disclaimer

   EN    FR    IT 

 










Légende :    VFR   VFR Marginal   IFR   IFR Intensif   IFR Très Intensif
Visi : 
Plafond : 
>= 8 km
>= 3000ft
5 à 8 km
1000 à 3000 ft
1500m à 5 km
500 à 1000 ft
800 à 1500m
200 à 500 ft
< 800m
< 200 ft
Symboles :   Orages  Brouillard  Fortes neiges  Fortes précipitations  Vent > 20 kt
SIGMETs :   Divers  Orages  Givrage  Turbulence  Onde Orograph.  Cendres Volcan.






- Altitude de l'aérodrome : 135 ft
- Code IATA : EDI


EGPH - Edinburgh

DERNIER METAR :
  • 020520Z 24021KT 9999 SCT014 08/06 Q1007

METARs EXPIRÉS :
  • 020450Z 23019KT 9999 FEW017 BKN032 08/05 Q1008
  • 020420Z 24022KT 9999 FEW019 07/04 Q1008
  • 020350Z 25016KT 9999 FEW037 07/04 Q1009
  • 020320Z 24018KT 9999 FEW037 07/04 Q1010
  • 020250Z 25017KT 9999 SCT025 07/04 Q1010

TAF TAF EGPH
Valide du 02 à 06h jusqu'au 03 à 06h UTC


020455Z 0206/0306 25018KT 9999 SCT030
TEMPO 0206/0218 28022G32KT
BECMG 0219/0222 25008KT
ATIS : +44 131 339 2823



MET'MAP, la Météo Aéronautique d'un coup d'oeil ! - Copyright ORBIFLY Décembre 2007 - Disclaimer

ORBIFLY MET'MAP TEAM :

Programmation & Développement : Alexandra Zaïnal
Sur une idée originale de : Baudouin d'Aumeries
Assistance à la programmation : Marc-Olivier Méhu
Soutien technique & logistique : Manuel Goepfert

Contact : metmap@orbifly.com




SOURCES & CREDITS :

   NOAA